Terminal Aerodrome Forecast
Issued by NWS Pittsburgh, PA

Current Version | Previous Version | Text Only | Print | Product List | Glossary Off
Versions: 1 2 3 4 5 6 7 8 9 10 11 12 13 14 15 16 17 18 19 20 21 22 23 24 25 26 27 28

299
FTUS41 KPBZ 081937 AAB
TAFPIT
TAF AMD
KPIT 081937Z 0820/0924 21010KT 5SM -RASN SCT015 OVC025
     FM082030 22005KT 3SM -RASN OVC008
     FM082300 25005KT P6SM OVC015
     FM090800 29005KT 5SM -SHSN OVC010
     FM091500 30008KT P6SM BKN020=

USA.gov is the U.S. government's official web portal to all federal, state and local government web resources and services.